createdAt,value
2022-09-24T00:01:32.546Z,92.50
2022-09-24T00:04:03.028Z,92.90
2022-09-24T00:06:31.297Z,92.54
2022-09-24T00:08:58.851Z,92.47
2022-09-24T00:11:27.655Z,92.96
2022-09-24T00:13:58.216Z,93.29
2022-09-24T00:16:27.950Z,93.51
2022-09-24T00:18:55.624Z,93.41
2022-09-24T00:21:30.833Z,93.09
2022-09-24T00:24:00.387Z,93.15
2022-09-24T00:26:46.631Z,93.52
2022-09-24T00:29:17.494Z,94.65
2022-09-24T00:31:45.493Z,94.73
2022-09-24T00:34:13.324Z,94.00
2022-09-24T00:36:41.057Z,95.66
2022-09-24T00:39:10.423Z,96.50
2022-09-24T00:41:39.450Z,95.27
2022-09-24T00:44:41.145Z,95.26
2022-09-24T00:47:11.872Z,97.24
2022-09-24T00:49:39.993Z,96.28
2022-09-24T00:52:07.670Z,96.09
2022-09-24T00:54:35.681Z,95.94
2022-09-24T00:57:03.375Z,95.96
2022-09-24T00:59:31.143Z,95.92
2022-09-24T01:01:59.621Z,95.76
2022-09-24T01:04:27.709Z,95.93
2022-09-24T01:06:55.817Z,95.36
2022-09-24T01:09:24.874Z,95.45
2022-09-24T01:12:01.644Z,96.05
2022-09-24T01:14:57.797Z,95.93
2022-09-24T01:17:39.720Z,95.56
2022-09-24T01:20:31.760Z,96.25
2022-09-24T01:23:24.673Z,96.03
2022-09-24T01:26:26.745Z,96.02
2022-09-24T01:29:32.271Z,96.11
2022-09-24T01:32:05.990Z,96.68
2022-09-24T01:34:45.323Z,97.70
2022-09-24T01:37:14.895Z,98.03
2022-09-24T01:39:42.959Z,97.92
2022-09-24T01:42:11.181Z,97.71
2022-09-24T01:44:39.946Z,97.89
2022-09-24T01:47:07.718Z,98.09
2022-09-24T01:49:35.296Z,97.90
2022-09-24T01:52:04.627Z,97.63
2022-09-24T01:54:35.230Z,97.57
2022-09-24T01:57:15.917Z,96.94
2022-09-24T01:59:50.135Z,98.34
2022-09-24T02:02:39.873Z,97.48
2022-09-24T02:05:28.972Z,98.22
2022-09-24T02:08:17.145Z,99.63
2022-09-24T02:10:55.107Z,100.00
2022-09-24T02:13:25.323Z,99.70
2022-09-24T02:15:56.324Z,99.60
2022-09-24T02:18:25.993Z,99.69
2022-09-24T02:20:54.286Z,99.31
2022-09-24T02:23:22.086Z,99.50
2022-09-24T02:26:02.294Z,98.75
2022-09-24T02:28:30.446Z,98.38
2022-09-24T02:31:12.305Z,98.76
2022-09-24T02:34:01.528Z,100.00
2022-09-24T02:36:29.969Z,99.26
2022-09-24T02:38:57.891Z,100.00
2022-09-24T02:41:25.621Z,100.00
2022-09-24T02:43:54.140Z,100.00
2022-09-24T02:46:22.185Z,100.00
2022-09-24T02:48:49.865Z,100.00
2022-09-24T02:51:17.580Z,100.00
2022-09-24T02:53:45.491Z,100.00
2022-09-24T02:56:13.108Z,100.00
2022-09-24T02:58:41.190Z,100.00
2022-09-24T03:01:09.299Z,100.00
2022-09-24T03:03:38.176Z,100.00
2022-09-24T03:06:06.660Z,100.00
2022-09-24T03:08:35.450Z,100.00
2022-09-24T03:11:03.424Z,100.00
2022-09-24T03:13:32.837Z,100.00
2022-09-24T03:16:00.484Z,100.00
2022-09-24T03:18:28.156Z,100.00
2022-09-24T03:20:58.099Z,100.00
2022-09-24T03:23:25.943Z,100.00
2022-09-24T03:25:55.157Z,100.00
2022-09-24T03:28:22.883Z,100.00
2022-09-24T03:31:02.795Z,100.00
2022-09-24T03:33:38.260Z,100.00
2022-09-24T03:36:12.844Z,100.00
2022-09-24T03:38:41.011Z,100.00
2022-09-24T03:41:09.059Z,100.00
2022-09-24T03:43:38.004Z,100.00
2022-09-24T03:46:07.965Z,100.00
2022-09-24T03:48:36.944Z,100.00
2022-09-24T03:51:05.944Z,100.00
2022-09-24T03:53:34.723Z,100.00
2022-09-24T03:56:06.449Z,100.00
2022-09-24T03:58:38.063Z,100.00
2022-09-24T04:01:09.595Z,100.00
2022-09-24T04:03:37.096Z,99.01
2022-09-24T04:06:05.627Z,97.48
2022-09-24T04:08:33.296Z,96.59
2022-09-24T04:11:02.383Z,95.95
2022-09-24T04:13:30.141Z,96.91
2022-09-24T04:16:02.360Z,96.73
2022-09-24T04:18:30.174Z,96.65
2022-09-24T04:20:59.964Z,96.25
2022-09-24T04:23:28.562Z,96.30
2022-09-24T04:25:56.169Z,95.85
2022-09-24T04:28:24.592Z,95.87
2022-09-24T04:30:52.532Z,95.42
2022-09-24T04:33:20.569Z,95.50
2022-09-24T04:35:48.419Z,95.36
2022-09-24T04:38:16.054Z,94.99
2022-09-24T04:40:46.968Z,93.95
2022-09-24T04:43:14.700Z,92.48
2022-09-24T04:45:45.982Z,92.08
2022-09-24T04:48:13.918Z,92.01
2022-09-24T04:50:45.749Z,91.63
2022-09-24T04:53:14.541Z,91.67
2022-09-24T04:55:42.216Z,91.14
2022-09-24T04:58:10.123Z,91.04
2022-09-24T05:00:37.868Z,90.52
2022-09-24T05:03:05.687Z,90.65
2022-09-24T05:05:33.998Z,90.52
2022-09-24T05:08:02.084Z,90.42
2022-09-24T05:10:34.732Z,90.04
2022-09-24T05:13:02.488Z,90.37
2022-09-24T05:15:30.327Z,90.71
2022-09-24T05:17:58.456Z,90.22
2022-09-24T05:20:26.162Z,90.02
2022-09-24T05:22:54.429Z,90.43
2022-09-24T05:25:23.373Z,89.76
2022-09-24T05:27:52.522Z,90.10
2022-09-24T05:30:22.250Z,89.63
2022-09-24T05:32:52.594Z,89.28
2022-09-24T05:35:21.244Z,89.06
2022-09-24T05:37:53.873Z,88.83
2022-09-24T05:40:40.506Z,88.64
2022-09-24T05:43:08.637Z,88.29
2022-09-24T05:45:36.381Z,88.54
2022-09-24T05:48:04.540Z,88.35
2022-09-24T05:50:35.289Z,89.02
2022-09-24T05:53:04.935Z,89.71
2022-09-24T05:55:32.881Z,90.32
2022-09-24T05:58:07.599Z,90.50
2022-09-24T06:00:36.418Z,90.44
2022-09-24T06:03:14.258Z,90.29
2022-09-24T06:05:46.574Z,89.26
2022-09-24T06:08:19.032Z,89.49
2022-09-24T06:10:49.823Z,89.57
2022-09-24T06:13:19.195Z,89.46
2022-09-24T06:15:47.326Z,89.94
2022-09-24T06:18:15.075Z,88.40
2022-09-24T06:20:43.161Z,89.58
2022-09-24T06:23:10.885Z,88.98
2022-09-24T06:25:39.225Z,88.09
2022-09-24T06:28:06.998Z,87.35
2022-09-24T06:31:31.678Z,86.71
2022-09-24T06:34:18.013Z,86.75
2022-09-24T06:36:45.710Z,86.53
2022-09-24T06:39:13.249Z,86.46
2022-09-24T06:41:40.935Z,86.52
2022-09-24T06:44:09.688Z,86.59
2022-09-24T06:46:37.685Z,87.01
2022-09-24T06:49:05.381Z,87.97
2022-09-24T06:51:36.254Z,87.92
2022-09-24T06:54:06.854Z,87.69
2022-09-24T06:56:34.518Z,86.26
2022-09-24T06:59:02.663Z,85.05
2022-09-24T07:01:30.772Z,85.90
2022-09-24T07:03:58.510Z,86.44
2022-09-24T07:06:26.060Z,87.33
2022-09-24T07:08:56.756Z,87.90
2022-09-24T07:11:24.417Z,87.71
2022-09-24T07:13:52.654Z,87.16
2022-09-24T07:16:20.291Z,87.16
2022-09-24T07:18:47.951Z,87.64
2022-09-24T07:21:15.885Z,86.57
2022-09-24T07:23:43.566Z,87.16
2022-09-24T07:26:11.340Z,86.90
2022-09-24T07:28:39.004Z,86.54
2022-09-24T07:31:06.811Z,87.50
2022-09-24T07:33:34.702Z,87.72
2022-09-24T07:36:07.305Z,87.63
2022-09-24T07:38:36.654Z,86.55
2022-09-24T07:41:06.202Z,85.77
2022-09-24T07:43:34.453Z,84.81
2022-09-24T07:46:02.389Z,83.83
2022-09-24T07:48:30.610Z,83.50
2022-09-24T07:50:58.302Z,81.14
2022-09-24T07:53:26.323Z,82.27
2022-09-24T07:55:53.980Z,83.29
2022-09-24T07:58:22.257Z,81.93
2022-09-24T08:00:52.678Z,81.95
2022-09-24T08:03:20.578Z,81.43
2022-09-24T08:05:48.282Z,82.51
2022-09-24T08:08:15.999Z,83.54
2022-09-24T08:10:43.840Z,82.73
2022-09-24T08:13:11.706Z,81.77
2022-09-24T08:15:40.602Z,81.14
2022-09-24T08:18:08.531Z,81.82
2022-09-24T08:20:39.487Z,81.04
2022-09-24T08:23:10.100Z,82.34
2022-09-24T08:25:37.783Z,81.82
2022-09-24T08:28:06.299Z,82.73
2022-09-24T08:30:35.069Z,82.02
2022-09-24T08:33:04.762Z,81.93
2022-09-24T08:35:33.606Z,82.98
2022-09-24T08:38:01.948Z,84.67
2022-09-24T08:40:47.134Z,84.12
2022-09-24T08:43:14.670Z,82.92
2022-09-24T08:46:03.907Z,83.56
2022-09-24T08:48:34.463Z,82.41
2022-09-24T08:51:04.653Z,81.72
2022-09-24T08:53:46.180Z,81.97
2022-09-24T08:56:13.816Z,81.92
2022-09-24T08:58:47.464Z,80.77
2022-09-24T09:01:56.756Z,79.41
2022-09-24T09:04:54.906Z,79.26
2022-09-24T09:07:52.335Z,78.69
2022-09-24T09:10:29.184Z,77.48
2022-09-24T09:13:12.745Z,75.77
2022-09-24T09:15:45.397Z,76.04
2022-09-24T09:18:26.656Z,75.61
2022-09-24T09:20:54.425Z,75.01
2022-09-24T09:23:31.206Z,75.54
2022-09-24T09:25:59.920Z,74.60
2022-09-24T09:28:27.762Z,73.61
2022-09-24T09:31:34.402Z,71.45
2022-09-24T09:34:17.819Z,71.22
2022-09-24T09:37:26.500Z,70.87
2022-09-24T09:40:31.946Z,69.77
2022-09-24T09:43:03.072Z,68.49
2022-09-24T09:45:56.027Z,67.27
2022-09-24T09:48:24.979Z,67.17
2022-09-24T09:50:55.718Z,66.61
2022-09-24T09:53:24.220Z,65.90
2022-09-24T09:55:56.319Z,63.71
2022-09-24T09:58:25.740Z,63.74
2022-09-24T10:00:54.030Z,63.80
2022-09-24T10:03:32.009Z,64.55
2022-09-24T10:06:01.683Z,62.43
2022-09-24T10:08:30.673Z,63.18
2022-09-24T10:10:59.668Z,63.26
2022-09-24T10:13:27.584Z,64.52
2022-09-24T10:15:56.793Z,64.83
2022-09-24T10:18:50.079Z,63.32
2022-09-24T10:21:29.831Z,65.14
2022-09-24T10:24:01.954Z,65.42
2022-09-24T10:26:38.759Z,68.13
2022-09-24T10:29:42.859Z,69.92
2022-09-24T10:32:16.723Z,72.83
2022-09-24T10:34:57.481Z,71.23
2022-09-24T10:37:25.318Z,72.14
2022-09-24T10:40:15.682Z,72.68
2022-09-24T10:42:43.377Z,72.60
2022-09-24T10:45:14.237Z,73.42
2022-09-24T10:48:01.064Z,72.57
2022-09-24T10:50:46.994Z,71.26
2022-09-24T10:53:20.408Z,70.92
2022-09-24T10:55:48.243Z,71.38
2022-09-24T10:58:31.370Z,71.71
2022-09-24T11:01:08.216Z,70.69
2022-09-24T11:03:47.887Z,69.75
2022-09-24T11:06:34.697Z,68.20
2022-09-24T11:09:20.970Z,67.13
2022-09-24T11:12:24.574Z,65.56
2022-09-24T11:15:20.375Z,65.55
2022-09-24T11:17:56.710Z,64.84
2022-09-24T11:20:43.992Z,66.19
2022-09-24T11:23:42.481Z,68.21
2022-09-24T11:26:45.468Z,68.78
2022-09-24T11:29:37.018Z,73.75
2022-09-24T11:32:26.731Z,77.13
2022-09-24T11:35:06.508Z,81.56
2022-09-24T11:37:46.967Z,84.70
2022-09-24T11:40:30.060Z,87.00
2022-09-24T11:43:16.711Z,88.96
2022-09-24T11:45:47.875Z,90.17
2022-09-24T11:48:52.785Z,89.68
2022-09-24T11:51:30.766Z,90.86
2022-09-24T11:54:01.352Z,92.81
2022-09-24T11:56:40.965Z,90.49
2022-09-24T11:59:37.613Z,91.03
2022-09-24T12:02:30.877Z,91.42
2022-09-24T12:05:02.822Z,91.67
2022-09-24T12:07:43.264Z,91.19
2022-09-24T12:10:37.491Z,88.97
2022-09-24T12:13:28.866Z,83.50
2022-09-24T12:16:19.788Z,86.33
2022-09-24T12:19:16.932Z,84.82
2022-09-24T12:21:45.587Z,85.79
2022-09-24T12:24:36.156Z,81.14
2022-09-24T12:27:14.969Z,77.81
2022-09-24T12:30:32.145Z,75.11
2022-09-24T12:33:21.302Z,77.03
2022-09-24T12:35:57.067Z,76.63
2022-09-24T12:38:46.199Z,79.55
2022-09-24T12:41:35.849Z,80.90
2022-09-24T12:44:19.644Z,80.88
2022-09-24T12:46:53.312Z,83.43
2022-09-24T12:49:27.229Z,82.74
2022-09-24T12:52:25.313Z,78.02
2022-09-24T12:55:02.849Z,75.15
2022-09-24T12:57:34.756Z,74.23
2022-09-24T13:00:06.226Z,70.92
2022-09-24T13:02:45.636Z,70.02
2022-09-24T13:05:32.630Z,69.09
2022-09-24T13:08:17.075Z,69.23
2022-09-24T13:11:00.777Z,66.17
2022-09-24T13:13:31.876Z,64.54
2022-09-24T13:16:20.811Z,64.70
2022-09-24T13:18:56.124Z,66.18
2022-09-24T13:21:25.377Z,62.69
2022-09-24T13:23:53.321Z,64.62
2022-09-24T13:26:20.887Z,64.36
2022-09-24T13:29:22.123Z,64.19
2022-09-24T13:31:52.524Z,64.88
2022-09-24T13:34:28.569Z,67.31
2022-09-24T13:37:16.571Z,66.90
2022-09-24T13:39:44.091Z,69.44
2022-09-24T13:42:38.166Z,69.88
2022-09-24T13:45:09.662Z,71.18
2022-09-24T13:47:46.782Z,69.83
2022-09-24T13:50:16.579Z,66.39
2022-09-24T13:52:53.357Z,64.80
2022-09-24T13:55:24.516Z,65.11
2022-09-24T13:57:52.216Z,63.57
2022-09-24T14:00:23.139Z,62.67
2022-09-24T14:03:22.411Z,63.19
2022-09-24T14:05:52.351Z,64.01
2022-09-24T14:08:23.453Z,65.27
2022-09-24T14:10:52.989Z,65.71
2022-09-24T14:13:27.212Z,65.47
2022-09-24T14:16:14.996Z,63.39
2022-09-24T14:18:42.824Z,62.73
2022-09-24T14:21:11.872Z,62.12
2022-09-24T14:23:51.739Z,63.13
2022-09-24T14:26:31.194Z,63.47
2022-09-24T14:29:00.268Z,66.03
2022-09-24T14:31:27.879Z,66.67
2022-09-24T14:33:55.994Z,67.06
2022-09-24T14:36:29.283Z,68.79
2022-09-24T14:39:03.076Z,70.74
2022-09-24T14:41:34.829Z,70.13
2022-09-24T14:44:03.941Z,71.51
2022-09-24T14:46:34.418Z,72.42
2022-09-24T14:49:06.835Z,74.32
2022-09-24T14:51:35.649Z,74.78
2022-09-24T14:54:28.925Z,75.92
2022-09-24T14:56:56.655Z,75.51
2022-09-24T14:59:31.848Z,77.02
2022-09-24T15:02:18.507Z,79.55
2022-09-24T15:05:01.908Z,79.08
2022-09-24T15:07:32.734Z,79.28
2022-09-24T15:10:02.029Z,80.04
2022-09-24T15:12:37.044Z,80.97
2022-09-24T15:15:27.649Z,80.56
2022-09-24T15:17:55.624Z,81.77
2022-09-24T15:20:23.406Z,82.34
2022-09-24T15:22:52.433Z,83.77
2022-09-24T15:25:20.102Z,84.33
2022-09-24T15:27:49.561Z,84.17
2022-09-24T15:30:19.888Z,84.98
2022-09-24T15:32:48.278Z,88.60
2022-09-24T15:35:16.883Z,89.43
2022-09-24T15:37:44.704Z,91.54
2022-09-24T15:40:23.590Z,93.33
2022-09-24T15:42:52.341Z,96.19
2022-09-24T15:45:21.604Z,97.88
2022-09-24T15:47:50.641Z,98.17
2022-09-24T15:50:21.602Z,98.92
2022-09-24T15:52:52.689Z,98.49
2022-09-24T15:55:20.649Z,99.70
2022-09-24T15:57:48.422Z,97.54
2022-09-24T16:00:21.373Z,96.82
2022-09-24T16:02:56.621Z,97.06
2022-09-24T16:05:24.627Z,97.53
2022-09-24T16:07:52.436Z,98.27
2022-09-24T16:10:20.465Z,96.92
2022-09-24T16:12:50.114Z,96.97
2022-09-24T16:15:19.119Z,98.11
2022-09-24T16:17:50.114Z,98.58
2022-09-24T16:20:18.074Z,98.08
2022-09-24T16:22:45.937Z,100.00
2022-09-24T16:25:13.597Z,100.00
2022-09-24T16:27:45.578Z,100.00
2022-09-24T16:30:13.391Z,100.00
2022-09-24T16:32:41.178Z,100.00
2022-09-24T16:35:11.304Z,100.00
2022-09-24T16:37:40.902Z,100.00
2022-09-24T16:40:09.084Z,100.00
2022-09-24T16:42:36.715Z,100.00
2022-09-24T16:45:04.629Z,100.00
2022-09-24T16:47:32.315Z,100.00
2022-09-24T16:49:59.988Z,100.00
2022-09-24T16:52:30.450Z,100.00
2022-09-24T16:54:58.415Z,100.00
2022-09-24T16:57:26.065Z,100.00
2022-09-24T16:59:54.448Z,100.00
2022-09-24T17:02:22.225Z,100.00
2022-09-24T17:04:49.963Z,100.00
2022-09-24T17:07:17.630Z,100.00
2022-09-24T17:10:03.497Z,100.00
2022-09-24T17:12:32.896Z,100.00
2022-09-24T17:15:02.205Z,100.00
2022-09-24T17:17:30.751Z,100.00
2022-09-24T17:19:58.602Z,100.00
2022-09-24T17:22:26.292Z,100.00
2022-09-24T17:24:54.141Z,100.00
2022-09-24T17:27:21.803Z,100.00
2022-09-24T17:29:49.487Z,100.00
2022-09-24T17:32:17.191Z,100.00
2022-09-24T17:34:46.027Z,100.00
2022-09-24T17:37:15.748Z,100.00
2022-09-24T17:39:43.569Z,100.00
2022-09-24T17:42:11.153Z,100.00
2022-09-24T17:44:39.353Z,100.00
2022-09-24T17:47:07.968Z,100.00
2022-09-24T17:49:35.633Z,100.00
2022-09-24T17:52:03.774Z,100.00
2022-09-24T17:54:31.480Z,100.00
2022-09-24T17:56:59.166Z,100.00
2022-09-24T17:59:27.273Z,100.00
2022-09-24T18:01:56.018Z,100.00
2022-09-24T18:04:27.020Z,100.00
2022-09-24T18:06:54.674Z,100.00
2022-09-24T18:09:23.166Z,100.00
2022-09-24T18:11:51.599Z,100.00
2022-09-24T18:14:20.922Z,100.00
2022-09-24T18:16:51.342Z,100.00
2022-09-24T18:19:19.376Z,100.00
2022-09-24T18:21:48.931Z,100.00
2022-09-24T18:24:18.462Z,100.00
2022-09-24T18:26:51.325Z,100.00
2022-09-24T18:29:20.448Z,100.00
2022-09-24T18:31:48.268Z,100.00
2022-09-24T18:34:16.079Z,100.00
2022-09-24T18:36:45.978Z,100.00
2022-09-24T18:39:15.856Z,100.00
2022-09-24T18:41:46.246Z,100.00
2022-09-24T18:44:15.099Z,100.00
2022-09-24T18:46:43.285Z,100.00
2022-09-24T18:49:11.577Z,100.00
2022-09-24T18:51:40.639Z,100.00
2022-09-24T18:54:12.562Z,100.00
2022-09-24T18:56:40.509Z,100.00
2022-09-24T18:59:14.638Z,100.00
2022-09-24T19:01:42.700Z,100.00
2022-09-24T19:04:12.461Z,100.00
2022-09-24T19:06:42.978Z,100.00
2022-09-24T19:09:11.666Z,100.00
2022-09-24T19:11:40.655Z,100.00
2022-09-24T19:14:09.419Z,100.00
2022-09-24T19:16:37.326Z,100.00
2022-09-24T19:19:04.957Z,100.00
2022-09-24T19:21:33.053Z,100.00
2022-09-24T19:24:00.925Z,100.00
2022-09-24T19:26:30.047Z,100.00
2022-09-24T19:28:57.777Z,100.00
2022-09-24T19:31:34.740Z,100.00
2022-09-24T19:34:03.258Z,100.00
2022-09-24T19:36:37.436Z,100.00
2022-09-24T19:39:10.355Z,100.00
2022-09-24T19:41:38.092Z,100.00
2022-09-24T19:44:09.066Z,100.00
2022-09-24T19:46:38.629Z,100.00
2022-09-24T19:49:07.098Z,100.00
2022-09-24T19:51:35.660Z,100.00
2022-09-24T19:54:07.156Z,100.00
2022-09-24T19:56:36.319Z,100.00
2022-09-24T19:59:04.095Z,100.00
2022-09-24T20:01:32.941Z,100.00
2022-09-24T20:04:03.363Z,100.00
2022-09-24T20:06:31.938Z,100.00
2022-09-24T20:09:00.026Z,100.00
2022-09-24T20:11:32.859Z,100.00
2022-09-24T20:14:01.501Z,100.00
2022-09-24T20:16:33.618Z,100.00
2022-09-24T20:19:01.913Z,100.00
2022-09-24T20:21:34.870Z,100.00
2022-09-24T20:24:04.540Z,100.00
2022-09-24T20:26:50.918Z,100.00
2022-09-24T20:29:23.078Z,99.88
2022-09-24T20:31:53.138Z,99.27
2022-09-24T20:34:34.405Z,99.23
2022-09-24T20:37:05.833Z,99.79
2022-09-24T20:39:33.813Z,99.02
2022-09-24T20:42:03.894Z,99.21
2022-09-24T20:44:33.961Z,99.15
2022-09-24T20:47:01.617Z,98.55
2022-09-24T20:49:30.033Z,98.32
2022-09-24T20:51:58.195Z,98.43
2022-09-24T20:54:26.625Z,98.60
2022-09-24T20:56:54.331Z,98.52
2022-09-24T20:59:22.424Z,98.13
2022-09-24T21:01:50.055Z,98.31
2022-09-24T21:04:20.154Z,98.62
2022-09-24T21:06:48.702Z,99.34
2022-09-24T21:09:17.273Z,99.82
2022-09-24T21:11:45.083Z,99.52
2022-09-24T21:14:14.858Z,99.98
2022-09-24T21:16:43.644Z,100.00
2022-09-24T21:19:11.207Z,99.20
2022-09-24T21:21:40.322Z,100.00
2022-09-24T21:24:11.830Z,100.00
2022-09-24T21:26:39.666Z,100.00
2022-09-24T21:29:11.382Z,100.00
2022-09-24T21:31:42.140Z,100.00
2022-09-24T21:34:11.009Z,99.59
2022-09-24T21:36:44.370Z,99.41
2022-09-24T21:39:20.183Z,100.00
2022-09-24T21:41:55.054Z,99.56
2022-09-24T21:44:22.708Z,99.77
2022-09-24T21:46:52.616Z,100.00
2022-09-24T21:49:20.711Z,99.90
2022-09-24T21:51:48.703Z,99.85
2022-09-24T21:54:17.802Z,99.34
2022-09-24T21:56:46.121Z,99.25
2022-09-24T21:59:33.308Z,98.63
2022-09-24T22:02:03.326Z,99.08
2022-09-24T22:04:33.560Z,99.21
2022-09-24T22:07:01.454Z,98.68
2022-09-24T22:09:30.033Z,98.75
2022-09-24T22:12:00.225Z,99.37
2022-09-24T22:14:27.874Z,100.00
2022-09-24T22:16:56.782Z,100.00
2022-09-24T22:19:24.396Z,99.59
2022-09-24T22:21:52.515Z,98.88
2022-09-24T22:24:20.209Z,99.34
2022-09-24T22:26:48.525Z,100.00
2022-09-24T22:29:16.187Z,99.22
2022-09-24T22:31:44.110Z,98.45
2022-09-24T22:34:30.055Z,99.25
2022-09-24T22:36:57.870Z,98.47
2022-09-24T22:39:25.563Z,97.77
2022-09-24T22:41:53.308Z,97.58
2022-09-24T22:44:20.916Z,97.12
2022-09-24T22:46:48.481Z,96.86
2022-09-24T22:49:16.852Z,96.12
2022-09-24T22:51:44.557Z,96.38
2022-09-24T22:54:13.671Z,96.25
2022-09-24T22:56:41.815Z,96.24
2022-09-24T22:59:09.415Z,96.16
2022-09-24T23:01:42.497Z,96.56
2022-09-24T23:04:15.150Z,97.00
2022-09-24T23:06:43.879Z,97.20
2022-09-24T23:09:11.920Z,96.49
2022-09-24T23:11:39.506Z,96.26
2022-09-24T23:14:11.481Z,97.22
2022-09-24T23:16:39.338Z,97.52
2022-09-24T23:19:11.489Z,97.37
2022-09-24T23:21:39.122Z,97.28
2022-09-24T23:24:08.693Z,96.89
2022-09-24T23:26:38.121Z,97.24
2022-09-24T23:29:05.767Z,97.42
2022-09-24T23:31:34.468Z,97.05
2022-09-24T23:34:02.207Z,96.85
2022-09-24T23:36:31.552Z,96.68
2022-09-24T23:38:59.982Z,96.64
2022-09-24T23:41:29.112Z,96.49
2022-09-24T23:43:56.836Z,95.90
2022-09-24T23:46:24.552Z,95.64
2022-09-24T23:48:52.438Z,95.86
2022-09-24T23:51:20.047Z,96.13
2022-09-24T23:53:48.415Z,96.87
2022-09-24T23:56:16.026Z,96.82
2022-09-24T23:58:43.682Z,96.64
